sensor_id;sensor_type;location;lat;lon;timestamp;P1;durP1;ratioP1;P2;durP2;ratioP2
75096;SDS011;63684;47.964;11.186;2024-01-15T00:00:37;5.20;;;2.87;;
75096;SDS011;63684;47.964;11.186;2024-01-15T00:03:06;3.73;;;3.00;;
75096;SDS011;63684;47.964;11.186;2024-01-15T00:05:31;5.33;;;3.13;;
75096;SDS011;63684;47.964;11.186;2024-01-15T00:07:57;4.10;;;2.60;;
75096;SDS011;63684;47.964;11.186;2024-01-15T00:10:23;4.40;;;2.97;;
75096;SDS011;63684;47.964;11.186;2024-01-15T00:12:48;4.80;;;3.13;;
75096;SDS011;63684;47.964;11.186;2024-01-15T00:15:14;4.97;;;2.80;;
75096;SDS011;63684;47.964;11.186;2024-01-15T00:17:40;3.20;;;2.53;;
75096;SDS011;63684;47.964;11.186;2024-01-15T00:20:05;5.77;;;3.50;;
75096;SDS011;63684;47.964;11.186;2024-01-15T00:22:32;4.03;;;3.20;;
75096;SDS011;63684;47.964;11.186;2024-01-15T00:24:57;4.07;;;2.90;;
75096;SDS011;63684;47.964;11.186;2024-01-15T00:27:23;6.77;;;3.33;;
75096;SDS011;63684;47.964;11.186;2024-01-15T00:29:49;4.63;;;2.97;;
75096;SDS011;63684;47.964;11.186;2024-01-15T00:32:15;5.53;;;3.50;;
75096;SDS011;63684;47.964;11.186;2024-01-15T00:34:41;4.43;;;2.93;;
75096;SDS011;63684;47.964;11.186;2024-01-15T00:37:07;4.70;;;3.43;;
75096;SDS011;63684;47.964;11.186;2024-01-15T00:39:32;6.03;;;3.10;;
75096;SDS011;63684;47.964;11.186;2024-01-15T00:41:58;6.03;;;3.90;;
75096;SDS011;63684;47.964;11.186;2024-01-15T00:44:23;4.47;;;3.43;;
75096;SDS011;63684;47.964;11.186;2024-01-15T00:46:49;5.70;;;3.67;;
75096;SDS011;63684;47.964;11.186;2024-01-15T00:49:14;4.23;;;2.97;;
75096;SDS011;63684;47.964;11.186;2024-01-15T00:51:40;4.07;;;3.23;;
75096;SDS011;63684;47.964;11.186;2024-01-15T00:54:06;5.57;;;3.57;;
75096;SDS011;63684;47.964;11.186;2024-01-15T00:56:32;5.47;;;3.47;;
75096;SDS011;63684;47.964;11.186;2024-01-15T00:58:57;13.37;;;4.37;;
75096;SDS011;63684;47.964;11.186;2024-01-15T01:01:23;6.13;;;3.90;;
75096;SDS011;63684;47.964;11.186;2024-01-15T01:03:48;5.77;;;3.67;;
75096;SDS011;63684;47.964;11.186;2024-01-15T01:06:13;7.57;;;4.70;;
75096;SDS011;63684;47.964;11.186;2024-01-15T01:08:39;7.67;;;4.17;;
75096;SDS011;63684;47.964;11.186;2024-01-15T01:11:04;6.50;;;4.07;;
75096;SDS011;63684;47.964;11.186;2024-01-15T01:13:32;6.00;;;3.80;;
75096;SDS011;63684;47.964;11.186;2024-01-15T01:15:58;8.13;;;4.50;;
75096;SDS011;63684;47.964;11.186;2024-01-15T01:18:23;6.30;;;4.20;;
75096;SDS011;63684;47.964;11.186;2024-01-15T01:20:49;6.90;;;4.00;;
75096;SDS011;63684;47.964;11.186;2024-01-15T01:23:14;7.87;;;4.27;;
75096;SDS011;63684;47.964;11.186;2024-01-15T01:25:40;9.77;;;5.50;;
75096;SDS011;63684;47.964;11.186;2024-01-15T01:28:05;11.13;;;5.60;;
75096;SDS011;63684;47.964;11.186;2024-01-15T01:30:30;12.30;;;6.10;;
75096;SDS011;63684;47.964;11.186;2024-01-15T01:32:56;10.60;;;6.90;;
75096;SDS011;63684;47.964;11.186;2024-01-15T01:35:22;13.53;;;6.93;;
75096;SDS011;63684;47.964;11.186;2024-01-15T01:37:47;12.90;;;7.60;;
75096;SDS011;63684;47.964;11.186;2024-01-15T01:40:13;12.70;;;7.67;;
75096;SDS011;63684;47.964;11.186;2024-01-15T01:42:38;12.30;;;7.57;;
75096;SDS011;63684;47.964;11.186;2024-01-15T01:45:04;12.80;;;8.57;;
75096;SDS011;63684;47.964;11.186;2024-01-15T01:47:30;15.03;;;9.03;;
75096;SDS011;63684;47.964;11.186;2024-01-15T01:49:56;15.07;;;8.60;;
75096;SDS011;63684;47.964;11.186;2024-01-15T01:52:21;16.63;;;9.27;;
75096;SDS011;63684;47.964;11.186;2024-01-15T01:54:47;13.63;;;9.10;;
75096;SDS011;63684;47.964;11.186;2024-01-15T01:57:13;15.93;;;10.00;;
75096;SDS011;63684;47.964;11.186;2024-01-15T01:59:39;19.57;;;9.97;;
75096;SDS011;63684;47.964;11.186;2024-01-15T02:02:04;18.40;;;10.40;;
75096;SDS011;63684;47.964;11.186;2024-01-15T02:04:31;16.33;;;10.17;;
75096;SDS011;63684;47.964;11.186;2024-01-15T02:06:56;18.30;;;10.73;;
75096;SDS011;63684;47.964;11.186;2024-01-15T02:09:22;14.17;;;9.27;;
75096;SDS011;63684;47.964;11.186;2024-01-15T02:11:47;15.73;;;9.23;;
75096;SDS011;63684;47.964;11.186;2024-01-15T02:14:13;15.50;;;9.30;;
75096;SDS011;63684;47.964;11.186;2024-01-15T02:16:39;16.70;;;9.73;;
75096;SDS011;63684;47.964;11.186;2024-01-15T02:19:04;16.63;;;10.07;;
75096;SDS011;63684;47.964;11.186;2024-01-15T02:21:31;16.50;;;10.30;;
75096;SDS011;63684;47.964;11.186;2024-01-15T02:23:57;19.37;;;10.53;;
75096;SDS011;63684;47.964;11.186;2024-01-15T02:26:22;19.33;;;9.80;;
75096;SDS011;63684;47.964;11.186;2024-01-15T02:28:48;16.00;;;10.30;;
75096;SDS011;63684;47.964;11.186;2024-01-15T02:31:14;17.77;;;10.63;;
75096;SDS011;63684;47.964;11.186;2024-01-15T02:33:39;17.30;;;9.67;;
75096;SDS011;63684;47.964;11.186;2024-01-15T02:36:05;16.73;;;10.30;;
75096;SDS011;63684;47.964;11.186;2024-01-15T02:38:31;16.50;;;9.93;;
75096;SDS011;63684;47.964;11.186;2024-01-15T02:40:56;18.83;;;10.27;;
75096;SDS011;63684;47.964;11.186;2024-01-15T02:43:22;14.43;;;9.33;;
75096;SDS011;63684;47.964;11.186;2024-01-15T02:45:47;14.43;;;8.83;;
75096;SDS011;63684;47.964;11.186;2024-01-15T02:48:13;14.50;;;9.07;;
75096;SDS011;63684;47.964;11.186;2024-01-15T02:50:38;16.07;;;8.37;;
75096;SDS011;63684;47.964;11.186;2024-01-15T02:53:04;14.83;;;8.73;;
75096;SDS011;63684;47.964;11.186;2024-01-15T02:55:29;13.97;;;8.47;;
75096;SDS011;63684;47.964;11.186;2024-01-15T02:57:55;11.70;;;7.43;;
75096;SDS011;63684;47.964;11.186;2024-01-15T03:00:20;14.67;;;8.03;;
75096;SDS011;63684;47.964;11.186;2024-01-15T03:02:46;14.83;;;7.13;;
75096;SDS011;63684;47.964;11.186;2024-01-15T03:05:11;12.07;;;7.13;;
75096;SDS011;63684;47.964;11.186;2024-01-15T03:07:37;14.40;;;7.53;;
75096;SDS011;63684;47.964;11.186;2024-01-15T03:10:02;13.80;;;7.23;;
75096;SDS011;63684;47.964;11.186;2024-01-15T03:12:28;12.27;;;7.67;;
75096;SDS011;63684;47.964;11.186;2024-01-15T03:14:54;12.63;;;7.50;;
75096;SDS011;63684;47.964;11.186;2024-01-15T03:17:19;12.20;;;8.00;;
75096;SDS011;63684;47.964;11.186;2024-01-15T03:19:45;14.17;;;7.23;;
75096;SDS011;63684;47.964;11.186;2024-01-15T03:22:10;13.00;;;7.53;;
75096;SDS011;63684;47.964;11.186;2024-01-15T03:24:36;13.83;;;7.13;;
75096;SDS011;63684;47.964;11.186;2024-01-15T03:27:01;10.10;;;6.87;;
75096;SDS011;63684;47.964;11.186;2024-01-15T03:29:27;11.43;;;7.47;;
75096;SDS011;63684;47.964;11.186;2024-01-15T03:31:53;12.87;;;6.87;;
75096;SDS011;63684;47.964;11.186;2024-01-15T03:34:18;10.40;;;6.77;;
75096;SDS011;63684;47.964;11.186;2024-01-15T03:36:44;11.90;;;6.80;;
75096;SDS011;63684;47.964;11.186;2024-01-15T03:39:10;10.53;;;6.13;;
75096;SDS011;63684;47.964;11.186;2024-01-15T03:41:35;9.73;;;5.83;;
75096;SDS011;63684;47.964;11.186;2024-01-15T03:44:00;9.87;;;6.17;;
75096;SDS011;63684;47.964;11.186;2024-01-15T03:46:26;10.53;;;6.10;;
75096;SDS011;63684;47.964;11.186;2024-01-15T03:48:52;9.30;;;6.13;;
75096;SDS011;63684;47.964;11.186;2024-01-15T03:51:17;7.70;;;4.90;;
75096;SDS011;63684;47.964;11.186;2024-01-15T03:53:43;9.57;;;5.70;;
75096;SDS011;63684;47.964;11.186;2024-01-15T03:56:09;8.07;;;5.93;;
75096;SDS011;63684;47.964;11.186;2024-01-15T03:58:34;9.53;;;6.20;;
75096;SDS011;63684;47.964;11.186;2024-01-15T04:00:59;10.60;;;5.83;;
75096;SDS011;63684;47.964;11.186;2024-01-15T04:03:25;9.87;;;5.87;;
75096;SDS011;63684;47.964;11.186;2024-01-15T04:05:50;9.33;;;5.90;;
75096;SDS011;63684;47.964;11.186;2024-01-15T04:08:16;9.83;;;6.03;;
75096;SDS011;63684;47.964;11.186;2024-01-15T04:10:41;8.67;;;5.03;;
75096;SDS011;63684;47.964;11.186;2024-01-15T04:13:07;10.93;;;6.00;;
75096;SDS011;63684;47.964;11.186;2024-01-15T04:15:32;8.23;;;5.20;;
75096;SDS011;63684;47.964;11.186;2024-01-15T04:17:58;7.20;;;4.40;;
75096;SDS011;63684;47.964;11.186;2024-01-15T04:20:23;8.33;;;5.27;;
75096;SDS011;63684;47.964;11.186;2024-01-15T04:22:49;9.77;;;4.97;;
75096;SDS011;63684;47.964;11.186;2024-01-15T04:25:14;7.20;;;4.23;;
75096;SDS011;63684;47.964;11.186;2024-01-15T04:27:40;9.37;;;5.10;;
75096;SDS011;63684;47.964;11.186;2024-01-15T04:30:05;7.00;;;4.90;;
75096;SDS011;63684;47.964;11.186;2024-01-15T04:32:31;7.77;;;4.70;;
75096;SDS011;63684;47.964;11.186;2024-01-15T04:34:57;8.13;;;5.13;;
75096;SDS011;63684;47.964;11.186;2024-01-15T04:37:22;9.70;;;5.87;;
75096;SDS011;63684;47.964;11.186;2024-01-15T04:39:48;8.17;;;5.50;;
75096;SDS011;63684;47.964;11.186;2024-01-15T04:42:13;6.53;;;4.80;;
75096;SDS011;63684;47.964;11.186;2024-01-15T04:44:39;6.13;;;4.43;;
75096;SDS011;63684;47.964;11.186;2024-01-15T04:47:04;8.87;;;5.43;;
75096;SDS011;63684;47.964;11.186;2024-01-15T04:49:30;7.43;;;5.37;;
75096;SDS011;63684;47.964;11.186;2024-01-15T04:51:55;11.00;;;6.30;;
75096;SDS011;63684;47.964;11.186;2024-01-15T04:54:20;12.33;;;6.03;;
75096;SDS011;63684;47.964;11.186;2024-01-15T04:56:46;8.40;;;5.10;;
75096;SDS011;63684;47.964;11.186;2024-01-15T04:59:12;10.17;;;5.53;;
75096;SDS011;63684;47.964;11.186;2024-01-15T05:01:39;7.47;;;4.73;;
75096;SDS011;63684;47.964;11.186;2024-01-15T05:04:05;8.77;;;5.27;;
75096;SDS011;63684;47.964;11.186;2024-01-15T05:06:30;9.17;;;5.57;;
75096;SDS011;63684;47.964;11.186;2024-01-15T05:08:55;10.70;;;5.60;;
75096;SDS011;63684;47.964;11.186;2024-01-15T05:11:21;7.53;;;5.10;;
75096;SDS011;63684;47.964;11.186;2024-01-15T05:13:46;8.57;;;5.00;;
75096;SDS011;63684;47.964;11.186;2024-01-15T05:16:12;7.33;;;5.10;;
75096;SDS011;63684;47.964;11.186;2024-01-15T05:18:37;11.40;;;5.27;;
75096;SDS011;63684;47.964;11.186;2024-01-15T05:21:03;8.90;;;4.87;;
75096;SDS011;63684;47.964;11.186;2024-01-15T05:23:30;10.50;;;4.77;;
75096;SDS011;63684;47.964;11.186;2024-01-15T05:25:56;5.83;;;4.23;;
75096;SDS011;63684;47.964;11.186;2024-01-15T05:28:22;8.93;;;5.30;;
75096;SDS011;63684;47.964;11.186;2024-01-15T05:30:47;7.87;;;5.07;;
75096;SDS011;63684;47.964;11.186;2024-01-15T05:33:13;6.77;;;4.80;;
75096;SDS011;63684;47.964;11.186;2024-01-15T05:35:39;10.23;;;5.30;;
75096;SDS011;63684;47.964;11.186;2024-01-15T05:38:04;7.73;;;4.60;;
75096;SDS011;63684;47.964;11.186;2024-01-15T05:40:29;10.07;;;5.83;;
75096;SDS011;63684;47.964;11.186;2024-01-15T05:42:55;7.80;;;5.07;;
75096;SDS011;63684;47.964;11.186;2024-01-15T05:45:20;7.80;;;4.60;;
75096;SDS011;63684;47.964;11.186;2024-01-15T05:47:46;9.67;;;5.43;;
75096;SDS011;63684;47.964;11.186;2024-01-15T05:50:11;9.40;;;6.30;;
75096;SDS011;63684;47.964;11.186;2024-01-15T05:52:37;7.83;;;4.80;;
75096;SDS011;63684;47.964;11.186;2024-01-15T05:55:03;7.13;;;5.07;;
75096;SDS011;63684;47.964;11.186;2024-01-15T05:57:29;10.07;;;5.13;;
75096;SDS011;63684;47.964;11.186;2024-01-15T05:59:55;9.63;;;5.57;;
75096;SDS011;63684;47.964;11.186;2024-01-15T06:02:20;8.73;;;5.23;;
75096;SDS011;63684;47.964;11.186;2024-01-15T06:04:46;7.13;;;4.90;;
75096;SDS011;63684;47.964;11.186;2024-01-15T06:07:11;5.70;;;4.50;;
75096;SDS011;63684;47.964;11.186;2024-01-15T06:09:37;9.50;;;5.43;;
75096;SDS011;63684;47.964;11.186;2024-01-15T06:12:03;6.67;;;4.73;;
75096;SDS011;63684;47.964;11.186;2024-01-15T06:14:29;7.37;;;4.70;;
75096;SDS011;63684;47.964;11.186;2024-01-15T06:16:55;6.83;;;4.63;;
75096;SDS011;63684;47.964;11.186;2024-01-15T06:19:20;9.13;;;4.73;;
75096;SDS011;63684;47.964;11.186;2024-01-15T06:21:46;9.17;;;5.13;;
75096;SDS011;63684;47.964;11.186;2024-01-15T06:24:11;9.50;;;5.20;;
75096;SDS011;63684;47.964;11.186;2024-01-15T06:26:38;9.23;;;5.63;;
75096;SDS011;63684;47.964;11.186;2024-01-15T06:29:04;7.80;;;5.23;;
75096;SDS011;63684;47.964;11.186;2024-01-15T06:31:29;9.73;;;5.87;;
75096;SDS011;63684;47.964;11.186;2024-01-15T06:33:55;8.90;;;5.90;;
75096;SDS011;63684;47.964;11.186;2024-01-15T06:36:21;8.40;;;5.30;;
75096;SDS011;63684;47.964;11.186;2024-01-15T06:38:46;8.00;;;5.00;;
75096;SDS011;63684;47.964;11.186;2024-01-15T06:41:12;7.10;;;4.23;;
75096;SDS011;63684;47.964;11.186;2024-01-15T06:43:37;11.23;;;5.10;;
75096;SDS011;63684;47.964;11.186;2024-01-15T06:46:03;7.27;;;4.70;;
75096;SDS011;63684;47.964;11.186;2024-01-15T06:48:28;7.83;;;4.90;;
75096;SDS011;63684;47.964;11.186;2024-01-15T06:50:54;9.13;;;5.03;;
75096;SDS011;63684;47.964;11.186;2024-01-15T06:53:19;8.30;;;4.37;;
75096;SDS011;63684;47.964;11.186;2024-01-15T06:55:45;10.00;;;5.50;;
75096;SDS011;63684;47.964;11.186;2024-01-15T06:58:11;6.93;;;5.00;;
75096;SDS011;63684;47.964;11.186;2024-01-15T07:00:37;6.70;;;4.93;;
75096;SDS011;63684;47.964;11.186;2024-01-15T07:03:03;6.97;;;4.77;;
75096;SDS011;63684;47.964;11.186;2024-01-15T07:05:28;10.17;;;4.97;;
75096;SDS011;63684;47.964;11.186;2024-01-15T07:07:55;7.10;;;4.77;;
75096;SDS011;63684;47.964;11.186;2024-01-15T07:10:21;6.23;;;5.00;;
75096;SDS011;63684;47.964;11.186;2024-01-15T07:12:46;8.60;;;5.10;;
75096;SDS011;63684;47.964;11.186;2024-01-15T07:15:12;7.60;;;4.23;;
75096;SDS011;63684;47.964;11.186;2024-01-15T07:17:37;6.87;;;4.70;;
75096;SDS011;63684;47.964;11.186;2024-01-15T07:20:08;6.83;;;4.80;;
75096;SDS011;63684;47.964;11.186;2024-01-15T07:22:37;6.87;;;5.00;;
75096;SDS011;63684;47.964;11.186;2024-01-15T07:25:02;6.27;;;4.60;;
75096;SDS011;63684;47.964;11.186;2024-01-15T07:27:30;8.97;;;5.43;;
75096;SDS011;63684;47.964;11.186;2024-01-15T07:29:56;8.70;;;4.33;;
75096;SDS011;63684;47.964;11.186;2024-01-15T07:32:22;8.23;;;4.80;;
75096;SDS011;63684;47.964;11.186;2024-01-15T07:34:48;8.60;;;5.20;;
75096;SDS011;63684;47.964;11.186;2024-01-15T07:37:14;6.13;;;4.67;;
75096;SDS011;63684;47.964;11.186;2024-01-15T07:39:39;21.17;;;7.47;;
75096;SDS011;63684;47.964;11.186;2024-01-15T07:42:05;6.67;;;4.50;;
75096;SDS011;63684;47.964;11.186;2024-01-15T07:44:31;6.97;;;4.60;;
75096;SDS011;63684;47.964;11.186;2024-01-15T07:46:56;6.40;;;4.87;;
75096;SDS011;63684;47.964;11.186;2024-01-15T07:49:22;6.10;;;4.57;;
75096;SDS011;63684;47.964;11.186;2024-01-15T07:51:48;8.47;;;4.73;;
75096;SDS011;63684;47.964;11.186;2024-01-15T07:54:14;9.50;;;5.17;;
75096;SDS011;63684;47.964;11.186;2024-01-15T07:59:24;9.63;;;5.60;;
75096;SDS011;63684;47.964;11.186;2024-01-15T08:01:51;10.50;;;4.57;;
75096;SDS011;63684;47.964;11.186;2024-01-15T08:04:17;6.47;;;4.30;;
75096;SDS011;63684;47.964;11.186;2024-01-15T08:06:42;7.47;;;5.07;;
75096;SDS011;63684;47.964;11.186;2024-01-15T08:09:08;7.60;;;4.17;;
75096;SDS011;63684;47.964;11.186;2024-01-15T08:11:42;6.40;;;4.10;;
75096;SDS011;63684;47.964;11.186;2024-01-15T08:14:17;9.10;;;6.10;;
75096;SDS011;63684;47.964;11.186;2024-01-15T08:16:47;6.97;;;4.93;;
75096;SDS011;63684;47.964;11.186;2024-01-15T08:19:13;6.63;;;4.80;;
75096;SDS011;63684;47.964;11.186;2024-01-15T08:21:39;7.07;;;4.87;;
75096;SDS011;63684;47.964;11.186;2024-01-15T08:24:05;8.20;;;5.30;;
75096;SDS011;63684;47.964;11.186;2024-01-15T08:26:31;7.37;;;4.60;;
75096;SDS011;63684;47.964;11.186;2024-01-15T08:28:57;6.87;;;4.37;;
75096;SDS011;63684;47.964;11.186;2024-01-15T08:31:23;6.30;;;4.27;;
75096;SDS011;63684;47.964;11.186;2024-01-15T08:33:49;7.83;;;5.23;;
75096;SDS011;63684;47.964;11.186;2024-01-15T08:36:14;7.27;;;4.53;;
75096;SDS011;63684;47.964;11.186;2024-01-15T08:38:40;5.90;;;4.60;;
75096;SDS011;63684;47.964;11.186;2024-01-15T08:41:05;9.77;;;4.90;;
75096;SDS011;63684;47.964;11.186;2024-01-15T08:43:31;7.17;;;4.67;;
75096;SDS011;63684;47.964;11.186;2024-01-15T08:45:56;7.80;;;4.77;;
75096;SDS011;63684;47.964;11.186;2024-01-15T08:48:22;8.20;;;4.77;;
75096;SDS011;63684;47.964;11.186;2024-01-15T08:50:48;8.37;;;5.07;;
75096;SDS011;63684;47.964;11.186;2024-01-15T08:53:13;9.80;;;5.70;;
75096;SDS011;63684;47.964;11.186;2024-01-15T08:55:39;7.80;;;4.73;;
75096;SDS011;63684;47.964;11.186;2024-01-15T08:58:04;7.13;;;4.60;;
75096;SDS011;63684;47.964;11.186;2024-01-15T09:00:31;6.43;;;4.47;;
75096;SDS011;63684;47.964;11.186;2024-01-15T09:02:57;5.20;;;3.47;;
75096;SDS011;63684;47.964;11.186;2024-01-15T09:05:22;6.73;;;3.73;;
75096;SDS011;63684;47.964;11.186;2024-01-15T09:07:48;6.63;;;4.23;;
75096;SDS011;63684;47.964;11.186;2024-01-15T09:10:14;6.07;;;3.80;;
75096;SDS011;63684;47.964;11.186;2024-01-15T09:12:39;6.53;;;4.00;;
75096;SDS011;63684;47.964;11.186;2024-01-15T09:15:05;7.93;;;3.70;;
75096;SDS011;63684;47.964;11.186;2024-01-15T09:17:33;4.70;;;3.30;;
75096;SDS011;63684;47.964;11.186;2024-01-15T09:19:59;5.53;;;3.90;;
75096;SDS011;63684;47.964;11.186;2024-01-15T09:22:25;5.40;;;3.70;;
75096;SDS011;63684;47.964;11.186;2024-01-15T09:24:50;5.47;;;3.60;;
75096;SDS011;63684;47.964;11.186;2024-01-15T09:27:16;6.80;;;3.93;;
75096;SDS011;63684;47.964;11.186;2024-01-15T09:29:41;5.70;;;3.53;;
75096;SDS011;63684;47.964;11.186;2024-01-15T09:32:08;9.30;;;3.87;;
75096;SDS011;63684;47.964;11.186;2024-01-15T09:34:34;4.30;;;3.17;;
75096;SDS011;63684;47.964;11.186;2024-01-15T09:36:59;5.63;;;3.93;;
75096;SDS011;63684;47.964;11.186;2024-01-15T09:39:25;4.43;;;3.00;;
75096;SDS011;63684;47.964;11.186;2024-01-15T09:41:51;5.63;;;3.53;;
75096;SDS011;63684;47.964;11.186;2024-01-15T09:44:18;8.43;;;3.73;;
75096;SDS011;63684;47.964;11.186;2024-01-15T09:46:44;5.13;;;3.87;;
75096;SDS011;63684;47.964;11.186;2024-01-15T09:49:10;7.40;;;3.57;;
75096;SDS011;63684;47.964;11.186;2024-01-15T09:51:36;3.90;;;2.53;;
75096;SDS011;63684;47.964;11.186;2024-01-15T09:54:02;4.10;;;2.93;;
75096;SDS011;63684;47.964;11.186;2024-01-15T09:56:29;5.07;;;3.10;;
75096;SDS011;63684;47.964;11.186;2024-01-15T09:58:55;4.07;;;2.57;;
75096;SDS011;63684;47.964;11.186;2024-01-15T10:01:22;4.33;;;2.97;;
75096;SDS011;63684;47.964;11.186;2024-01-15T10:03:48;5.40;;;2.80;;
75096;SDS011;63684;47.964;11.186;2024-01-15T10:06:17;9.17;;;3.10;;
75096;SDS011;63684;47.964;11.186;2024-01-15T10:08:43;6.83;;;2.93;;
75096;SDS011;63684;47.964;11.186;2024-01-15T10:11:13;5.20;;;3.27;;
75096;SDS011;63684;47.964;11.186;2024-01-15T10:13:39;3.83;;;2.50;;
75096;SDS011;63684;47.964;11.186;2024-01-15T10:16:04;5.33;;;2.97;;
75096;SDS011;63684;47.964;11.186;2024-01-15T10:18:31;4.00;;;2.90;;
75096;SDS011;63684;47.964;11.186;2024-01-15T10:20:56;6.23;;;3.40;;
75096;SDS011;63684;47.964;11.186;2024-01-15T10:23:25;4.77;;;2.97;;
75096;SDS011;63684;47.964;11.186;2024-01-15T10:25:50;4.23;;;2.90;;
75096;SDS011;63684;47.964;11.186;2024-01-15T10:28:16;4.07;;;2.07;;
75096;SDS011;63684;47.964;11.186;2024-01-15T10:30:44;3.87;;;2.97;;
75096;SDS011;63684;47.964;11.186;2024-01-15T10:33:10;6.23;;;3.43;;
75096;SDS011;63684;47.964;11.186;2024-01-15T10:35:38;5.73;;;3.70;;
75096;SDS011;63684;47.964;11.186;2024-01-15T10:38:03;3.73;;;2.00;;
75096;SDS011;63684;47.964;11.186;2024-01-15T10:40:30;3.10;;;2.40;;
75096;SDS011;63684;47.964;11.186;2024-01-15T10:42:56;5.07;;;2.10;;
75096;SDS011;63684;47.964;11.186;2024-01-15T10:45:22;3.57;;;2.43;;
75096;SDS011;63684;47.964;11.186;2024-01-15T10:47:48;2.90;;;2.07;;
75096;SDS011;63684;47.964;11.186;2024-01-15T10:50:13;4.50;;;2.53;;
75096;SDS011;63684;47.964;11.186;2024-01-15T10:52:40;4.10;;;2.30;;
75096;SDS011;63684;47.964;11.186;2024-01-15T10:55:06;2.40;;;2.20;;
75096;SDS011;63684;47.964;11.186;2024-01-15T10:57:34;3.03;;;2.10;;
75096;SDS011;63684;47.964;11.186;2024-01-15T11:00:00;5.40;;;2.27;;
75096;SDS011;63684;47.964;11.186;2024-01-15T11:02:29;4.83;;;2.70;;
75096;SDS011;63684;47.964;11.186;2024-01-15T11:04:55;7.60;;;2.40;;
75096;SDS011;63684;47.964;11.186;2024-01-15T11:07:21;4.33;;;2.20;;
75096;SDS011;63684;47.964;11.186;2024-01-15T11:09:47;6.13;;;3.33;;
75096;SDS011;63684;47.964;11.186;2024-01-15T11:12:13;4.13;;;2.50;;
75096;SDS011;63684;47.964;11.186;2024-01-15T11:14:39;26.03;;;12.00;;
75096;SDS011;63684;47.964;11.186;2024-01-15T11:17:09;2.83;;;2.37;;
75096;SDS011;63684;47.964;11.186;2024-01-15T11:19:38;3.57;;;2.20;;
75096;SDS011;63684;47.964;11.186;2024-01-15T11:22:08;3.47;;;2.10;;
75096;SDS011;63684;47.964;11.186;2024-01-15T11:24:41;2.43;;;1.80;;
75096;SDS011;63684;47.964;11.186;2024-01-15T11:27:07;2.80;;;1.90;;
75096;SDS011;63684;47.964;11.186;2024-01-15T11:29:34;1.90;;;1.30;;
75096;SDS011;63684;47.964;11.186;2024-01-15T11:32:01;2.07;;;1.37;;
75096;SDS011;63684;47.964;11.186;2024-01-15T11:37:28;2.33;;;1.60;;
75096;SDS011;63684;47.964;11.186;2024-01-15T11:40:13;1.53;;;1.43;;
75096;SDS011;63684;47.964;11.186;2024-01-15T11:42:43;2.27;;;1.43;;
75096;SDS011;63684;47.964;11.186;2024-01-15T11:45:09;2.20;;;2.00;;
75096;SDS011;63684;47.964;11.186;2024-01-15T11:50:42;3.03;;;1.87;;
75096;SDS011;63684;47.964;11.186;2024-01-15T11:56:15;2.33;;;1.77;;
75096;SDS011;63684;47.964;11.186;2024-01-15T11:58:42;2.13;;;1.80;;
75096;SDS011;63684;47.964;11.186;2024-01-15T12:01:08;3.13;;;2.10;;
75096;SDS011;63684;47.964;11.186;2024-01-15T12:03:34;1.93;;;1.67;;
75096;SDS011;63684;47.964;11.186;2024-01-15T12:06:00;3.50;;;1.80;;
75096;SDS011;63684;47.964;11.186;2024-01-15T12:08:26;2.00;;;1.80;;
75096;SDS011;63684;47.964;11.186;2024-01-15T12:10:52;2.47;;;1.90;;
75096;SDS011;63684;47.964;11.186;2024-01-15T12:13:18;2.73;;;1.70;;
75096;SDS011;63684;47.964;11.186;2024-01-15T12:15:44;2.23;;;1.93;;
75096;SDS011;63684;47.964;11.186;2024-01-15T12:18:11;4.70;;;2.20;;
75096;SDS011;63684;47.964;11.186;2024-01-15T12:20:39;5.67;;;2.40;;
75096;SDS011;63684;47.964;11.186;2024-01-15T12:23:05;3.87;;;2.53;;
75096;SDS011;63684;47.964;11.186;2024-01-15T12:25:31;3.03;;;2.40;;
75096;SDS011;63684;47.964;11.186;2024-01-15T12:27:58;4.27;;;2.80;;
75096;SDS011;63684;47.964;11.186;2024-01-15T12:30:24;4.43;;;2.73;;
75096;SDS011;63684;47.964;11.186;2024-01-15T12:32:51;5.27;;;3.03;;
75096;SDS011;63684;47.964;11.186;2024-01-15T12:35:16;4.87;;;2.80;;
75096;SDS011;63684;47.964;11.186;2024-01-15T12:37:42;3.00;;;2.43;;
75096;SDS011;63684;47.964;11.186;2024-01-15T12:40:09;4.67;;;2.67;;
75096;SDS011;63684;47.964;11.186;2024-01-15T12:42:44;4.33;;;3.07;;
75096;SDS011;63684;47.964;11.186;2024-01-15T12:45:10;4.40;;;3.00;;
75096;SDS011;63684;47.964;11.186;2024-01-15T12:47:37;4.97;;;2.97;;
75096;SDS011;63684;47.964;11.186;2024-01-15T12:50:06;5.13;;;3.13;;
75096;SDS011;63684;47.964;11.186;2024-01-15T12:52:33;7.23;;;2.53;;
75096;SDS011;63684;47.964;11.186;2024-01-15T12:54:58;6.27;;;3.23;;
75096;SDS011;63684;47.964;11.186;2024-01-15T12:57:24;4.43;;;2.97;;
75096;SDS011;63684;47.964;11.186;2024-01-15T12:59:49;3.40;;;2.43;;
75096;SDS011;63684;47.964;11.186;2024-01-15T13:02:15;3.57;;;2.87;;
75096;SDS011;63684;47.964;11.186;2024-01-15T13:04:41;4.33;;;2.47;;
75096;SDS011;63684;47.964;11.186;2024-01-15T13:07:07;3.13;;;2.30;;
75096;SDS011;63684;47.964;11.186;2024-01-15T13:09:33;5.30;;;2.40;;
75096;SDS011;63684;47.964;11.186;2024-01-15T13:12:00;2.70;;;2.37;;
75096;SDS011;63684;47.964;11.186;2024-01-15T13:14:26;3.20;;;2.60;;
75096;SDS011;63684;47.964;11.186;2024-01-15T13:16:51;3.70;;;2.27;;
75096;SDS011;63684;47.964;11.186;2024-01-15T13:19:18;5.03;;;2.40;;
75096;SDS011;63684;47.964;11.186;2024-01-15T13:21:44;3.73;;;2.70;;
75096;SDS011;63684;47.964;11.186;2024-01-15T13:24:10;2.80;;;2.07;;
75096;SDS011;63684;47.964;11.186;2024-01-15T13:26:36;3.30;;;2.67;;
75096;SDS011;63684;47.964;11.186;2024-01-15T13:29:04;3.77;;;2.47;;
75096;SDS011;63684;47.964;11.186;2024-01-15T13:31:30;4.47;;;2.57;;
75096;SDS011;63684;47.964;11.186;2024-01-15T13:33:56;4.30;;;2.40;;
75096;SDS011;63684;47.964;11.186;2024-01-15T13:36:23;3.00;;;2.33;;
75096;SDS011;63684;47.964;11.186;2024-01-15T13:38:52;2.63;;;2.03;;
75096;SDS011;63684;47.964;11.186;2024-01-15T13:41:19;2.77;;;2.07;;
75096;SDS011;63684;47.964;11.186;2024-01-15T13:43:49;3.07;;;2.00;;
75096;SDS011;63684;47.964;11.186;2024-01-15T13:46:15;4.33;;;1.83;;
75096;SDS011;63684;47.964;11.186;2024-01-15T13:48:40;3.07;;;2.30;;
75096;SDS011;63684;47.964;11.186;2024-01-15T13:51:05;3.10;;;2.10;;
75096;SDS011;63684;47.964;11.186;2024-01-15T13:53:31;2.40;;;1.97;;
75096;SDS011;63684;47.964;11.186;2024-01-15T13:55:57;2.03;;;1.73;;
75096;SDS011;63684;47.964;11.186;2024-01-15T13:58:22;4.83;;;3.47;;
75096;SDS011;63684;47.964;11.186;2024-01-15T14:00:48;4.90;;;3.00;;
75096;SDS011;63684;47.964;11.186;2024-01-15T14:03:14;1.90;;;1.40;;
75096;SDS011;63684;47.964;11.186;2024-01-15T14:05:40;2.27;;;1.70;;
75096;SDS011;63684;47.964;11.186;2024-01-15T14:08:05;2.70;;;1.80;;
75096;SDS011;63684;47.964;11.186;2024-01-15T14:10:31;4.63;;;2.60;;
75096;SDS011;63684;47.964;11.186;2024-01-15T14:12:56;2.97;;;1.87;;
75096;SDS011;63684;47.964;11.186;2024-01-15T14:15:22;4.73;;;2.27;;
75096;SDS011;63684;47.964;11.186;2024-01-15T14:17:47;2.87;;;2.17;;
75096;SDS011;63684;47.964;11.186;2024-01-15T14:20:13;4.13;;;2.50;;
75096;SDS011;63684;47.964;11.186;2024-01-15T14:22:38;2.70;;;1.50;;
75096;SDS011;63684;47.964;11.186;2024-01-15T14:25:04;5.73;;;2.40;;
75096;SDS011;63684;47.964;11.186;2024-01-15T14:27:30;2.43;;;1.93;;
75096;SDS011;63684;47.964;11.186;2024-01-15T14:29:55;2.67;;;1.70;;
75096;SDS011;63684;47.964;11.186;2024-01-15T14:32:21;3.50;;;2.03;;
75096;SDS011;63684;47.964;11.186;2024-01-15T14:34:46;3.40;;;1.83;;